sensor_id;sensor_type;location;lat;lon;timestamp;pressure;altitude;pressure_sealevel;temperature;humidity
18436;BME280;9346;52.006;4.720;2022-11-20T00:01:20;101256.03;;;1.50;100.00
18436;BME280;9346;52.006;4.720;2022-11-20T00:03:47;101256.03;;;1.50;100.00
18436;BME280;9346;52.006;4.720;2022-11-20T00:06:16;101253.53;;;1.48;100.00
18436;BME280;9346;52.006;4.720;2022-11-20T00:08:44;101260.88;;;1.48;100.00
18436;BME280;9346;52.006;4.720;2022-11-20T00:11:13;101252.91;;;1.46;100.00
18436;BME280;9346;52.006;4.720;2022-11-20T00:13:42;101256.69;;;1.45;100.00
18436;BME280;9346;52.006;4.720;2022-11-20T00:16:11;101256.03;;;1.43;100.00
18436;BME280;9346;52.006;4.720;2022-11-20T00:18:38;101259.81;;;1.42;100.00
18436;BME280;9346;52.006;4.720;2022-11-20T00:21:11;101251.03;;;1.40;100.00
18436;BME280;9346;52.006;4.720;2022-11-20T00:23:38;101253.94;;;1.39;100.00
18436;BME280;9346;52.006;4.720;2022-11-20T00:26:06;101248.91;;;1.36;100.00
18436;BME280;9346;52.006;4.720;2022-11-20T00:28:34;101256.84;;;1.31;100.00
18436;BME280;9346;52.006;4.720;2022-11-20T00:31:06;101259.97;;;1.28;100.00
18436;BME280;9346;52.006;4.720;2022-11-20T00:33:33;101254.09;;;1.24;100.00
18436;BME280;9346;52.006;4.720;2022-11-20T00:36:00;101253.25;;;1.24;100.00
18436;BME280;9346;52.006;4.720;2022-11-20T00:38:27;101250.53;;;1.24;100.00
18436;BME280;9346;52.006;4.720;2022-11-20T00:40:56;101249.31;;;1.26;100.00
18436;BME280;9346;52.006;4.720;2022-11-20T00:43:23;101244.91;;;1.25;100.00
18436;BME280;9346;52.006;4.720;2022-11-20T00:45:50;101240.34;;;1.26;100.00
18436;BME280;9346;52.006;4.720;2022-11-20T00:48:18;101236.97;;;1.24;100.00
18436;BME280;9346;52.006;4.720;2022-11-20T00:50:46;101239.69;;;1.24;100.00
18436;BME280;9346;52.006;4.720;2022-11-20T00:53:14;101243.44;;;1.23;100.00
18436;BME280;9346;52.006;4.720;2022-11-20T00:55:40;101232.41;;;1.24;100.00
18436;BME280;9346;52.006;4.720;2022-11-20T00:58:07;101237.81;;;1.24;100.00
18436;BME280;9346;52.006;4.720;2022-11-20T01:00:34;101232.59;;;1.23;100.00
18436;BME280;9346;52.006;4.720;2022-11-20T01:03:01;101222.16;;;1.20;100.00
18436;BME280;9346;52.006;4.720;2022-11-20T01:05:34;101222.16;;;1.20;100.00
18436;BME280;9346;52.006;4.720;2022-11-20T01:08:01;101232.16;;;1.19;100.00
18436;BME280;9346;52.006;4.720;2022-11-20T01:10:28;101240.94;;;1.21;100.00
18436;BME280;9346;52.006;4.720;2022-11-20T01:12:56;101235.06;;;1.18;100.00
18436;BME280;9346;52.006;4.720;2022-11-20T01:15:36;101231.75;;;1.16;100.00
18436;BME280;9346;52.006;4.720;2022-11-20T01:18:03;101232.78;;;1.15;100.00
18436;BME280;9346;52.006;4.720;2022-11-20T01:20:34;101243.66;;;1.15;100.00
18436;BME280;9346;52.006;4.720;2022-11-20T01:23:01;101236.53;;;1.14;100.00
18436;BME280;9346;52.006;4.720;2022-11-20T01:25:28;101237.56;;;1.13;100.00
18436;BME280;9346;52.006;4.720;2022-11-20T01:27:55;101230.69;;;1.10;100.00
18436;BME280;9346;52.006;4.720;2022-11-20T01:30:22;101225.47;;;1.09;100.00
18436;BME280;9346;52.006;4.720;2022-11-20T01:32:49;101223.78;;;1.08;100.00
18436;BME280;9346;52.006;4.720;2022-11-20T01:35:16;101217.53;;;1.07;100.00
18436;BME280;9346;52.006;4.720;2022-11-20T01:37:45;101219.41;;;1.07;100.00
18436;BME280;9346;52.006;4.720;2022-11-20T01:40:12;101213.53;;;1.03;100.00
18436;BME280;9346;52.006;4.720;2022-11-20T01:42:44;101206.44;;;1.02;100.00
18436;BME280;9346;52.006;4.720;2022-11-20T01:45:55;101202.25;;;1.00;100.00
18436;BME280;9346;52.006;4.720;2022-11-20T01:48:25;101210.59;;;0.98;100.00
18436;BME280;9346;52.006;4.720;2022-11-20T01:50:53;101213.72;;;0.95;100.00
18436;BME280;9346;52.006;4.720;2022-11-20T01:53:26;101222.06;;;0.87;100.00
18436;BME280;9346;52.006;4.720;2022-11-20T01:55:56;101224.28;;;0.77;100.00
18436;BME280;9346;52.006;4.720;2022-11-20T01:58:28;101217.38;;;0.68;100.00
18436;BME280;9346;52.006;4.720;2022-11-20T02:00:56;101221.88;;;0.61;100.00
18436;BME280;9346;52.006;4.720;2022-11-20T02:03:23;101218.50;;;0.53;100.00
18436;BME280;9346;52.006;4.720;2022-11-20T02:05:55;101223.50;;;0.49;100.00
18436;BME280;9346;52.006;4.720;2022-11-20T02:08:24;101226.03;;;0.51;100.00
18436;BME280;9346;52.006;4.720;2022-11-20T02:10:51;101226.41;;;0.48;100.00
18436;BME280;9346;52.006;4.720;2022-11-20T02:13:18;101232.84;;;0.47;100.00
18436;BME280;9346;52.006;4.720;2022-11-20T02:16:03;101232.66;;;0.48;100.00
18436;BME280;9346;52.006;4.720;2022-11-20T02:18:30;101229.75;;;0.50;100.00
18436;BME280;9346;52.006;4.720;2022-11-20T02:21:03;101230.56;;;0.44;100.00
18436;BME280;9346;52.006;4.720;2022-11-20T02:23:38;101236.81;;;0.44;100.00
18436;BME280;9346;52.006;4.720;2022-11-20T02:26:10;101231.59;;;0.43;100.00
18436;BME280;9346;52.006;4.720;2022-11-20T02:28:39;101228.84;;;0.36;100.00
18436;BME280;9346;52.006;4.720;2022-11-20T02:31:06;101228.41;;;0.33;100.00
18436;BME280;9346;52.006;4.720;2022-11-20T02:33:33;101219.63;;;0.31;100.00
18436;BME280;9346;52.006;4.720;2022-11-20T02:36:00;101219.84;;;0.29;100.00
18436;BME280;9346;52.006;4.720;2022-11-20T02:38:27;101217.97;;;0.30;100.00
18436;BME280;9346;52.006;4.720;2022-11-20T02:40:54;101217.97;;;0.30;100.00
18436;BME280;9346;52.006;4.720;2022-11-20T02:43:22;101216.91;;;0.31;100.00
18436;BME280;9346;52.006;4.720;2022-11-20T02:45:49;101219.84;;;0.29;100.00
18436;BME280;9346;52.006;4.720;2022-11-20T02:48:16;101205.19;;;0.24;100.00
18436;BME280;9346;52.006;4.720;2022-11-20T02:50:43;101202.25;;;0.19;100.00
18436;BME280;9346;52.006;4.720;2022-11-20T02:53:10;101198.72;;;0.18;100.00
18436;BME280;9346;52.006;4.720;2022-11-20T02:55:37;101197.88;;;0.18;100.00
18436;BME280;9346;52.006;4.720;2022-11-20T02:58:04;101192.44;;;0.18;100.00
18436;BME280;9346;52.006;4.720;2022-11-20T03:00:33;101195.81;;;0.20;100.00
18436;BME280;9346;52.006;4.720;2022-11-20T03:03:01;101193.94;;;0.20;100.00
18436;BME280;9346;52.006;4.720;2022-11-20T03:05:28;101199.16;;;0.22;100.00
18436;BME280;9346;52.006;4.720;2022-11-20T03:07:55;101192.91;;;0.21;100.00
18436;BME280;9346;52.006;4.720;2022-11-20T03:10:22;101180.00;;;0.23;100.00
18436;BME280;9346;52.006;4.720;2022-11-20T03:12:52;101177.50;;;0.22;100.00
18436;BME280;9346;52.006;4.720;2022-11-20T03:15:19;101169.56;;;0.20;100.00
18436;BME280;9346;52.006;4.720;2022-11-20T03:17:48;101174.13;;;0.20;100.00
18436;BME280;9346;52.006;4.720;2022-11-20T03:20:15;101169.56;;;0.20;100.00
18436;BME280;9346;52.006;4.720;2022-11-20T03:22:41;101180.41;;;0.20;100.00
18436;BME280;9346;52.006;4.720;2022-11-20T03:25:08;101169.75;;;0.19;100.00
18436;BME280;9346;52.006;4.720;2022-11-20T03:27:35;101158.28;;;0.17;100.00
18436;BME280;9346;52.006;4.720;2022-11-20T03:30:03;101155.56;;;0.17;100.00
18436;BME280;9346;52.006;4.720;2022-11-20T03:32:30;101147.25;;;0.18;100.00
18436;BME280;9346;52.006;4.720;2022-11-20T03:34:59;101150.78;;;0.19;100.00
18436;BME280;9346;52.006;4.720;2022-11-20T03:37:26;101153.13;;;0.22;100.00
18436;BME280;9346;52.006;4.720;2022-11-20T03:39:54;101154.13;;;0.21;100.00
18436;BME280;9346;52.006;4.720;2022-11-20T03:42:20;101148.28;;;0.17;100.00
18436;BME280;9346;52.006;4.720;2022-11-20T03:45:05;101149.28;;;0.10;100.00
18436;BME280;9346;52.006;4.720;2022-11-20T03:47:32;101140.28;;;0.03;100.00
18436;BME280;9346;52.006;4.720;2022-11-20T03:50:02;101136.31;;;-0.02;100.00
18436;BME280;9346;52.006;4.720;2022-11-20T03:52:29;101125.47;;;-0.02;100.00
18436;BME280;9346;52.006;4.720;2022-11-20T03:54:56;101121.53;;;0.01;100.00
18436;BME280;9346;52.006;4.720;2022-11-20T03:57:23;101133.16;;;0.01;100.00
18436;BME280;9346;52.006;4.720;2022-11-20T03:59:50;101128.59;;;0.02;100.00
18436;BME280;9346;52.006;4.720;2022-11-20T04:02:17;101130.06;;;0.04;100.00
18436;BME280;9346;52.006;4.720;2022-11-20T04:04:44;101137.19;;;0.06;100.00
18436;BME280;9346;52.006;4.720;2022-11-20T04:07:13;101140.28;;;0.03;100.00
18436;BME280;9346;52.006;4.720;2022-11-20T04:09:40;101138.16;;;-0.02;100.00
18436;BME280;9346;52.006;4.720;2022-11-20T04:12:07;101137.31;;;-0.03;100.00
18436;BME280;9346;52.006;4.720;2022-11-20T04:14:34;101136.50;;;-0.03;100.00
18436;BME280;9346;52.006;4.720;2022-11-20T04:17:01;101131.69;;;-0.01;100.00
18436;BME280;9346;52.006;4.720;2022-11-20T04:19:28;101123.38;;;0.00;100.00
18436;BME280;9346;52.006;4.720;2022-11-20T04:21:55;101113.59;;;-0.01;100.00
18436;BME280;9346;52.006;4.720;2022-11-20T04:24:23;101107.31;;;-0.08;100.00
18436;BME280;9346;52.006;4.720;2022-11-20T04:26:50;101097.88;;;-0.18;100.00
18436;BME280;9346;52.006;4.720;2022-11-20T04:29:17;101093.22;;;-0.24;100.00
18436;BME280;9346;52.006;4.720;2022-11-20T04:31:43;101095.50;;;-0.28;100.00
18436;BME280;9346;52.006;4.720;2022-11-20T04:34:11;101101.75;;;-0.27;100.00
18436;BME280;9346;52.006;4.720;2022-11-20T04:36:38;101101.56;;;-0.26;100.00
18436;BME280;9346;52.006;4.720;2022-11-20T04:39:06;101107.63;;;-0.24;100.00
18436;BME280;9346;52.006;4.720;2022-11-20T04:41:35;101102.19;;;-0.24;100.00
18436;BME280;9346;52.006;4.720;2022-11-20T04:44:04;101095.75;;;-0.23;100.00
18436;BME280;9346;52.006;4.720;2022-11-20T04:46:34;101091.78;;;-0.27;100.00
18436;BME280;9346;52.006;4.720;2022-11-20T04:49:02;101091.31;;;-0.30;100.00
18436;BME280;9346;52.006;4.720;2022-11-20T04:51:29;101097.56;;;-0.30;100.00
18436;BME280;9346;52.006;4.720;2022-11-20T04:53:56;101100.28;;;-0.30;100.00
18436;BME280;9346;52.006;4.720;2022-11-20T04:56:24;101096.53;;;-0.29;100.00
18436;BME280;9346;52.006;4.720;2022-11-20T04:58:52;101097.97;;;-0.33;100.00
18436;BME280;9346;52.006;4.720;2022-11-20T05:01:21;101092.56;;;-0.33;100.00
18436;BME280;9346;52.006;4.720;2022-11-20T05:03:49;101098.63;;;-0.31;100.00
18436;BME280;9346;52.006;4.720;2022-11-20T05:06:17;101099.25;;;-0.29;100.00
18436;BME280;9346;52.006;4.720;2022-11-20T05:08:45;101105.31;;;-0.27;100.00
18436;BME280;9346;52.006;4.720;2022-11-20T05:11:13;101098.84;;;-0.26;100.00
18436;BME280;9346;52.006;4.720;2022-11-20T05:13:40;101095.94;;;-0.24;100.00
18436;BME280;9346;52.006;4.720;2022-11-20T05:16:11;101099.50;;;-0.24;100.00
18436;BME280;9346;52.006;4.720;2022-11-20T05:18:39;101093.44;;;-0.26;100.00
18436;BME280;9346;52.006;4.720;2022-11-20T05:21:07;101101.56;;;-0.26;100.00
18436;BME280;9346;52.006;4.720;2022-11-20T05:23:35;101098.84;;;-0.26;100.00
18436;BME280;9346;52.006;4.720;2022-11-20T05:26:03;101104.25;;;-0.26;100.00
18436;BME280;9346;52.006;4.720;2022-11-20T05:28:30;101108.00;;;-0.27;100.00
18436;BME280;9346;52.006;4.720;2022-11-20T05:31:04;101106.31;;;-0.28;100.00
18436;BME280;9346;52.006;4.720;2022-11-20T05:33:33;101100.28;;;-0.30;100.00
18436;BME280;9346;52.006;4.720;2022-11-20T05:36:01;101115.06;;;-0.32;100.00
18436;BME280;9346;52.006;4.720;2022-11-20T05:38:28;101112.47;;;-0.40;100.00
18436;BME280;9346;52.006;4.720;2022-11-20T05:40:54;101104.13;;;-0.45;100.00
18436;BME280;9346;52.006;4.720;2022-11-20T05:43:21;101093.69;;;-0.48;100.00
18436;BME280;9346;52.006;4.720;2022-11-20T05:45:52;101093.69;;;-0.48;100.00
18436;BME280;9346;52.006;4.720;2022-11-20T05:48:19;101093.69;;;-0.48;100.00
18436;BME280;9346;52.006;4.720;2022-11-20T05:50:48;101100.13;;;-0.49;100.00
18436;BME280;9346;52.006;4.720;2022-11-20T05:53:15;101095.38;;;-0.47;100.00
18436;BME280;9346;52.006;4.720;2022-11-20T05:55:42;101094.50;;;-0.48;100.00
18436;BME280;9346;52.006;4.720;2022-11-20T05:58:09;101084.94;;;-0.50;100.00
18436;BME280;9346;52.006;4.720;2022-11-20T06:00:36;101085.13;;;-0.52;100.00
18436;BME280;9346;52.006;4.720;2022-11-20T06:03:03;101092.78;;;-0.55;100.00
18436;BME280;9346;52.006;4.720;2022-11-20T06:05:31;101091.97;;;-0.56;100.00
18436;BME280;9346;52.006;4.720;2022-11-20T06:08:01;101091.31;;;-0.58;100.00
18436;BME280;9346;52.006;4.720;2022-11-20T06:10:28;101080.69;;;-0.59;100.00
18436;BME280;9346;52.006;4.720;2022-11-20T06:12:57;101075.25;;;-0.66;100.00
18436;BME280;9346;52.006;4.720;2022-11-20T06:15:23;101075.63;;;-0.69;100.00
18436;BME280;9346;52.006;4.720;2022-11-20T06:17:52;101070.63;;;-0.72;100.00
18436;BME280;9346;52.006;4.720;2022-11-20T06:20:19;101067.84;;;-0.78;100.00
18436;BME280;9346;52.006;4.720;2022-11-20T06:22:45;101061.53;;;-0.85;100.00
18436;BME280;9346;52.006;4.720;2022-11-20T06:25:14;101058.41;;;-0.89;100.00
18436;BME280;9346;52.006;4.720;2022-11-20T06:27:41;101058.78;;;-0.92;100.00
18436;BME280;9346;52.006;4.720;2022-11-20T06:30:10;101062.31;;;-0.91;100.00
18436;BME280;9346;52.006;4.720;2022-11-20T06:32:37;101067.53;;;-0.90;100.00
18436;BME280;9346;52.006;4.720;2022-11-20T06:35:04;101053.19;;;-0.90;100.00
18436;BME280;9346;52.006;4.720;2022-11-20T06:37:31;101051.31;;;-0.90;100.00
18436;BME280;9346;52.006;4.720;2022-11-20T06:39:58;101045.09;;;-0.90;100.00
18436;BME280;9346;52.006;4.720;2022-11-20T06:42:27;101046.69;;;-0.96;100.00
18436;BME280;9346;52.006;4.720;2022-11-20T06:44:55;101046.25;;;-0.99;100.00
18436;BME280;9346;52.006;4.720;2022-11-20T06:47:21;101053.28;;;-1.05;100.00
18436;BME280;9346;52.006;4.720;2022-11-20T06:49:48;101053.09;;;-1.03;100.00
18436;BME280;9346;52.006;4.720;2022-11-20T06:52:15;101051.84;;;-1.01;100.00
18436;BME280;9346;52.006;4.720;2022-11-20T06:54:42;101047.06;;;-0.99;100.00
18436;BME280;9346;52.006;4.720;2022-11-20T06:57:09;101035.03;;;-0.96;100.00
18436;BME280;9346;52.006;4.720;2022-11-20T06:59:38;101037.94;;;-0.98;100.00
18436;BME280;9346;52.006;4.720;2022-11-20T07:02:04;101037.94;;;-0.98;100.00
18436;BME280;9346;52.006;4.720;2022-11-20T07:04:32;101037.56;;;-0.95;100.00
18436;BME280;9346;52.006;4.720;2022-11-20T07:06:59;101035.84;;;-0.96;100.00
18436;BME280;9346;52.006;4.720;2022-11-20T07:09:26;101037.34;;;-0.93;100.00
18436;BME280;9346;52.006;4.720;2022-11-20T07:11:53;101032.75;;;-0.93;100.00
18436;BME280;9346;52.006;4.720;2022-11-20T07:14:19;101038.19;;;-0.93;100.00
18436;BME280;9346;52.006;4.720;2022-11-20T07:16:48;101044.63;;;-0.94;100.00
18436;BME280;9346;52.006;4.720;2022-11-20T07:19:15;101044.22;;;-0.91;100.00
18436;BME280;9346;52.006;4.720;2022-11-20T07:21:42;101049.66;;;-0.91;100.00
18436;BME280;9346;52.006;4.720;2022-11-20T07:24:09;101046.94;;;-0.91;100.00
18436;BME280;9346;52.006;4.720;2022-11-20T07:26:36;101044.63;;;-0.94;100.00
18436;BME280;9346;52.006;4.720;2022-11-20T07:29:03;101041.25;;;-0.96;100.00
18436;BME280;9346;52.006;4.720;2022-11-20T07:31:30;101045.66;;;-0.95;100.00
18436;BME280;9346;52.006;4.720;2022-11-20T07:33:58;101043.59;;;-0.93;100.00
18436;BME280;9346;52.006;4.720;2022-11-20T07:36:25;101048.59;;;-0.90;100.00
18436;BME280;9346;52.006;4.720;2022-11-20T07:38:52;101053.00;;;-0.89;100.00
18436;BME280;9346;52.006;4.720;2022-11-20T07:41:19;101049.69;;;-0.84;100.00
18436;BME280;9346;52.006;4.720;2022-11-20T07:43:46;101055.94;;;-0.84;100.00
18436;BME280;9346;52.006;4.720;2022-11-20T07:46:13;101055.56;;;-0.81;100.00
18436;BME280;9346;52.006;4.720;2022-11-20T07:48:40;101057.22;;;-0.80;100.00
18436;BME280;9346;52.006;4.720;2022-11-20T07:51:09;101054.91;;;-0.83;100.00
18436;BME280;9346;52.006;4.720;2022-11-20T07:53:36;101044.06;;;-0.83;100.00
18436;BME280;9346;52.006;4.720;2022-11-20T07:56:04;101045.13;;;-0.84;100.00
18436;BME280;9346;52.006;4.720;2022-11-20T07:58:32;101055.34;;;-0.79;100.00
18436;BME280;9346;52.006;4.720;2022-11-20T08:01:03;101055.63;;;-0.74;100.00
18436;BME280;9346;52.006;4.720;2022-11-20T08:03:29;101058.75;;;-0.71;100.00
18436;BME280;9346;52.006;4.720;2022-11-20T08:05:58;101048.59;;;-0.69;100.00
18436;BME280;9346;52.006;4.720;2022-11-20T08:08:28;101049.41;;;-0.68;100.00
18436;BME280;9346;52.006;4.720;2022-11-20T08:10:56;101056.72;;;-0.62;100.00
18436;BME280;9346;52.006;4.720;2022-11-20T08:13:44;101066.97;;;-0.58;100.00
18436;BME280;9346;52.006;4.720;2022-11-20T08:16:28;101059.13;;;-0.53;100.00
18436;BME280;9346;52.006;4.720;2022-11-20T08:18:56;101061.44;;;-0.50;100.00
18436;BME280;9346;52.006;4.720;2022-11-20T08:21:23;101067.25;;;-0.46;100.00
18436;BME280;9346;52.006;4.720;2022-11-20T08:23:53;101063.31;;;-0.44;100.00
18436;BME280;9346;52.006;4.720;2022-11-20T08:26:21;101053.13;;;-0.42;100.00
18436;BME280;9346;52.006;4.720;2022-11-20T08:28:48;101049.00;;;-0.38;100.00
18436;BME280;9346;52.006;4.720;2022-11-20T08:31:15;101056.53;;;-0.33;100.00
18436;BME280;9346;52.006;4.720;2022-11-20T08:33:43;101048.84;;;-0.30;100.00
18436;BME280;9346;52.006;4.720;2022-11-20T08:36:10;101047.41;;;-0.26;100.00
18436;BME280;9346;52.006;4.720;2022-11-20T08:38:37;101041.59;;;-0.23;100.00
18436;BME280;9346;52.006;4.720;2022-11-20T08:41:06;101039.34;;;-0.19;100.00
18436;BME280;9346;52.006;4.720;2022-11-20T08:43:53;101046.03;;;-0.15;100.00
18436;BME280;9346;52.006;4.720;2022-11-20T08:46:22;101039.38;;;-0.13;100.00
18436;BME280;9346;52.006;4.720;2022-11-20T08:48:50;101030.66;;;-0.08;100.00
18436;BME280;9346;52.006;4.720;2022-11-20T08:51:17;101032.75;;;-0.04;100.00
18436;BME280;9346;52.006;4.720;2022-11-20T08:53:44;101036.09;;;-0.02;100.00
18436;BME280;9346;52.006;4.720;2022-11-20T08:56:13;101033.41;;;0.05;100.00
18436;BME280;9346;52.006;4.720;2022-11-20T08:58:40;101030.31;;;0.08;100.00
18436;BME280;9346;52.006;4.720;2022-11-20T09:01:07;101034.47;;;0.11;100.00
18436;BME280;9346;52.006;4.720;2022-11-20T09:03:34;101031.38;;;0.14;100.00
18436;BME280;9346;52.006;4.720;2022-11-20T09:06:02;101033.66;;;0.17;100.00
18436;BME280;9346;52.006;4.720;2022-11-20T09:08:30;101045.75;;;0.21;100.00
18436;BME280;9346;52.006;4.720;2022-11-20T09:10:58;101043.69;;;0.23;100.00
18436;BME280;9346;52.006;4.720;2022-11-20T09:13:28;101030.41;;;0.28;100.00
18436;BME280;9346;52.006;4.720;2022-11-20T09:15:57;101024.13;;;0.34;100.00
18436;BME280;9346;52.006;4.720;2022-11-20T09:18:25;101022.06;;;0.36;100.00
18436;BME280;9346;52.006;4.720;2022-11-20T09:20:56;101010.84;;;0.39;100.00
18436;BME280;9346;52.006;4.720;2022-11-20T09:23:23;101006.66;;;0.43;100.00
18436;BME280;9346;52.006;4.720;2022-11-20T09:25:50;100995.00;;;0.49;100.00
18436;BME280;9346;52.006;4.720;2022-11-20T09:28:17;101007.09;;;0.53;100.00
18436;BME280;9346;52.006;4.720;2022-11-20T09:30:47;100995.44;;;0.59;100.00
18436;BME280;9346;52.006;4.720;2022-11-20T09:33:14;100991.28;;;0.63;100.00
18436;BME280;9346;52.006;4.720;2022-11-20T09:35:42;100987.94;;;0.67;100.00
18436;BME280;9346;52.006;4.720;2022-11-20T09:38:10;100988.38;;;0.71;100.00
18436;BME280;9346;52.006;4.720;2022-11-20T09:40:40;100984.22;;;0.75;100.00
18436;BME280;9346;52.006;4.720;2022-11-20T09:43:12;100966.28;;;0.80;100.00
18436;BME280;9346;52.006;4.720;2022-11-20T09:45:53;100968.34;;;0.85;100.00
18436;BME280;9346;52.006;4.720;2022-11-20T09:48:55;100970.88;;;0.93;100.00
18436;BME280;9346;52.006;4.720;2022-11-20T09:51:34;100967.53;;;0.97;100.00
18436;BME280;9346;52.006;4.720;2022-11-20T09:54:13;100965.88;;;1.03;100.00
18436;BME280;9346;52.006;4.720;2022-11-20T09:56:45;100948.75;;;1.09;100.00
18436;BME280;9346;52.006;4.720;2022-11-20T09:59:28;100950.63;;;1.15;100.00
18436;BME280;9346;52.006;4.720;2022-11-20T10:02:16;100962.91;;;1.24;100.00
18436;BME280;9346;52.006;4.720;2022-11-20T10:04:51;100956.03;;;1.28;100.00
18436;BME280;9346;52.006;4.720;2022-11-20T10:07:23;100949.94;;;1.32;100.00
18436;BME280;9346;52.006;4.720;2022-11-20T10:09:52;100941.59;;;1.34;100.00
18436;BME280;9346;52.006;4.720;2022-11-20T10:12:27;100939.53;;;1.36;100.00
18436;BME280;9346;52.006;4.720;2022-11-20T10:15:23;100925.53;;;1.39;100.00
18436;BME280;9346;52.006;4.720;2022-11-20T10:18:08;100914.03;;;1.43;100.00
18436;BME280;9346;52.006;4.720;2022-11-20T10:20:45;100910.06;;;1.46;100.00
18436;BME280;9346;52.006;4.720;2022-11-20T10:23:24;100902.31;;;1.49;100.00
18436;BME280;9346;52.006;4.720;2022-11-20T10:25:59;100903.16;;;1.50;100.00
18436;BME280;9346;52.006;4.720;2022-11-20T10:28:41;100897.28;;;1.53;100.00
18436;BME280;9346;52.006;4.720;2022-11-20T10:31:23;100890.19;;;1.52;100.00
18436;BME280;9346;52.006;4.720;2022-11-20T10:33:59;100885.19;;;1.55;100.00
18436;BME280;9346;52.006;4.720;2022-11-20T10:36:30;100885.56;;;1.59;100.00
18436;BME280;9346;52.006;4.720;2022-11-20T10:39:06;100877.41;;;1.65;100.00
18436;BME280;9346;52.006;4.720;2022-11-20T10:41:38;100854.63;;;1.66;100.00
18436;BME280;9346;52.006;4.720;2022-11-20T10:44:12;100862.34;;;1.69;100.00
18436;BME280;9346;52.006;4.720;2022-11-20T10:47:01;100856.06;;;1.75;100.00
18436;BME280;9346;52.006;4.720;2022-11-20T10:49:33;100852.06;;;1.78;100.00
18436;BME280;9346;52.006;4.720;2022-11-20T10:52:06;100847.66;;;1.83;100.00
18436;BME280;9346;52.006;4.720;2022-11-20T10:54:42;100849.56;;;1.83;100.00
18436;BME280;9346;52.006;4.720;2022-11-20T10:57:23;100854.56;;;1.86;100.00
18436;BME280;9346;52.006;4.720;2022-11-20T10:59:59;100831.75;;;1.87;100.00
18436;BME280;9346;52.006;4.720;2022-11-20T11:02:33;100836.53;;;1.91;100.00
18436;BME280;9346;52.006;4.720;2022-11-20T11:05:10;100840.91;;;1.92;100.00
18436;BME280;9346;52.006;4.720;2022-11-20T11:07:40;100833.84;;;1.91;100.00
18436;BME280;9346;52.006;4.720;2022-11-20T11:10:15;100835.25;;;1.94;100.00
18436;BME280;9346;52.006;4.720;2022-11-20T11:12:45;100831.06;;;1.98;100.00
18436;BME280;9346;52.006;4.720;2022-11-20T11:15:24;100830.03;;;1.99;100.00
18436;BME280;9346;52.006;4.720;2022-11-20T11:17:52;100825.81;;;2.03;100.00
18436;BME280;9346;52.006;4.720;2022-11-20T11:20:22;100823.72;;;2.05;100.00
18436;BME280;9346;52.006;4.720;2022-11-20T11:22:50;100810.50;;;2.08;100.00
18436;BME280;9346;52.006;4.720;2022-11-20T11:25:24;100803.78;;;2.11;100.00
18436;BME280;9346;52.006;4.720;2022-11-20T11:27:52;100794.75;;;2.17;100.00
18436;BME280;9346;52.006;4.720;2022-11-20T11:30:21;100784.31;;;2.20;100.00
18436;BME280;9346;52.006;4.720;2022-11-20T11:32:48;100788.25;;;2.24;100.00
18436;BME280;9346;52.006;4.720;2022-11-20T11:35:23;100772.34;;;2.28;100.00
18436;BME280;9346;52.006;4.720;2022-11-20T11:37:52;100771.44;;;2.34;100.00
18436;BME280;9346;52.006;4.720;2022-11-20T11:40:21;100769.72;;;2.40;100.00
18436;BME280;9346;52.006;4.720;2022-11-20T11:42:54;100749.41;;;2.42;100.00
18436;BME280;9346;52.006;4.720;2022-11-20T11:45:23;100747.09;;;2.46;100.00
18436;BME280;9346;52.006;4.720;2022-11-20T11:47:50;100734.06;;;2.48;100.00
18436;BME280;9346;52.006;4.720;2022-11-20T11:50:23;100733.63;;;2.51;100.00
18436;BME280;9346;52.006;4.720;2022-11-20T11:53:12;100722.97;;;2.49;100.00
18436;BME280;9346;52.006;4.720;2022-11-20T11:55:43;100712.72;;;2.51;100.00
18436;BME280;9346;52.006;4.720;2022-11-20T11:58:24;100694.28;;;2.53;100.00
18436;BME280;9346;52.006;4.720;2022-11-20T12:01:00;100681.31;;;2.55;100.00
18436;BME280;9346;52.006;4.720;2022-11-20T12:03:35;100672.69;;;2.58;100.00
18436;BME280;9346;52.006;4.720;2022-11-20T12:06:08;100673.91;;;2.62;100.00
18436;BME280;9346;52.006;4.720;2022-11-20T12:08:43;100674.50;;;2.64;100.00
18436;BME280;9346;52.006;4.720;2022-11-20T12:11:16;100675.72;;;2.68;100.00
18436;BME280;9346;52.006;4.720;2022-11-20T12:13:49;100682.81;;;2.69;100.00
18436;BME280;9346;52.006;4.720;2022-11-20T12:16:19;100691.13;;;2.74;100.00
18436;BME280;9346;52.006;4.720;2022-11-20T12:18:49;100687.94;;;2.77;100.00
18436;BME280;9346;52.006;4.720;2022-11-20T12:21:34;100682.28;;;2.79;100.00
18436;BME280;9346;52.006;4.720;2022-11-20T12:30:07;100680.53;;;2.84;100.00
18436;BME280;9346;52.006;4.720;2022-11-20T12:33:02;100667.91;;;2.90;100.00
18436;BME280;9346;52.006;4.720;2022-11-20T12:36:07;100669.94;;;2.94;100.00
18436;BME280;9346;52.006;4.720;2022-11-20T12:39:01;100674.09;;;2.97;100.00
18436;BME280;9346;52.006;4.720;2022-11-20T12:41:43;100672.59;;;3.01;100.00
18436;BME280;9346;52.006;4.720;2022-11-20T12:44:44;100665.41;;;3.06;100.00
18436;BME280;9346;52.006;4.720;2022-11-20T12:47:43;100662.22;;;3.09;100.00
18436;BME280;9346;52.006;4.720;2022-11-20T12:50:19;100642.50;;;3.14;100.00
18436;BME280;9346;52.006;4.720;2022-11-20T12:52:53;100637.41;;;3.17;100.00
18436;BME280;9346;52.006;4.720;2022-11-20T12:55:36;100638.25;;;3.18;100.00
18436;BME280;9346;52.006;4.720;2022-11-20T12:58:11;100625.59;;;3.23;100.00
18436;BME280;9346;52.006;4.720;2022-11-20T13:00:43;100620.97;;;3.24;100.00
18436;BME280;9346;52.006;4.720;2022-11-20T13:03:37;100610.44;;;3.27;100.00
18436;BME280;9346;52.006;4.720;2022-11-20T13:06:14;100610.22;;;3.29;100.00
18436;BME280;9346;52.006;4.720;2022-11-20T13:08:43;100612.69;;;3.30;100.00
18436;BME280;9346;52.006;4.720;2022-11-20T13:11:18;100606.00;;;3.33;100.00
18436;BME280;9346;52.006;4.720;2022-11-20T13:14:04;100593.78;;;3.35;100.00
18436;BME280;9346;52.006;4.720;2022-11-20T13:16:39;100590.00;;;3.36;100.00
18436;BME280;9346;52.006;4.720;2022-11-20T13:19:13;100584.31;;;3.38;100.00
18436;BME280;9346;52.006;4.720;2022-11-20T13:21:43;100588.13;;;3.37;100.00